Time;durP1;ratioP1;P1;durP2;ratioP2;P2;SDS_P1;SDS_P2;PMS_P1;PMS_P2;Temp;Humidity;BMP_temperature;BMP_pressure;BME280_temperature;BME280_humidity;BME280_pressure;Samples;Min_cycle;Max_cycle;Signal;HPM_P1;HPM_P2
2023/07/10 00:01:30;;;;;;;6.50;5.80;;;;;;;26.01;44.86;95566.50;6198302;28;109147;-68
2023/07/10 00:04:38;;;;;;;6.97;6.37;;;;;;;26.00;44.64;95564.91;6169447;28;110144;-61
2023/07/10 00:07:41;;;;;;;6.13;5.50;;;;;;;26.01;44.52;95565.69;6166758;28;109308;-59
2023/07/10 00:10:45;;;;;;;6.60;6.00;;;;;;;26.00;44.27;95570.28;6186363;28;109048;-59
2023/07/10 00:13:48;;;;;;;6.30;5.80;;;;;;;25.99;44.25;95563.31;6187086;28;109211;-60
2023/07/10 00:16:53;;;;;;;5.30;4.80;;;;;;;25.99;43.86;95563.31;6171917;28;108989;-61
2023/07/10 00:19:59;;;;;;;6.03;5.63;;;;;;;25.97;44.12;95554.81;6196966;28;110075;-61
2023/07/10 00:23:02;;;;;;;5.97;5.47;;;;;;;25.96;43.77;95554.00;6212060;28;110374;-60
2023/07/10 00:26:13;;;;;;;6.13;5.63;;;;;;;25.95;43.71;95557.00;6212406;28;109205;-61
2023/07/10 00:29:21;;;;;;;5.90;5.40;;;;;;;25.96;43.99;95559.38;6157038;28;109174;-61
2023/07/10 00:32:32;;;;;;;5.73;5.23;;;;;;;25.96;44.04;95563.94;6176736;28;109502;-62
2023/07/10 00:35:37;;;;;;;5.87;5.30;;;;;;;25.95;43.78;95568.53;6212116;28;109555;-59
2023/07/10 00:38:40;;;;;;;5.27;4.80;;;;;;;25.95;43.89;95565.84;6202581;28;110013;-61
2023/07/10 00:41:44;;;;;;;5.20;4.90;;;;;;;25.94;43.86;95566.16;6185083;28;109532;-59
2023/07/10 00:44:51;;;;;;;6.43;5.60;;;;;;;25.93;44.11;95570.75;6172166;28;109556;-59
2023/07/10 00:48:05;;;;;;;6.07;5.57;;;;;;;25.92;43.65;95563.81;6175365;28;109051;-60
2023/07/10 00:51:19;;;;;;;6.73;6.13;;;;;;;25.91;44.15;95564.13;6180513;28;109689;-61
2023/07/10 00:54:30;;;;;;;6.93;5.30;;;;;;;25.90;44.51;95571.38;6173406;28;109055;-60
2023/07/10 00:57:38;;;;;;;5.70;5.30;;;;;;;25.91;44.73;95570.28;6169600;28;109954;-61
2023/07/10 01:01:00;;;;;;;6.70;5.90;;;;;;;25.90;44.73;95568.69;6194327;28;109350;-61
2023/07/10 01:04:03;;;;;;;5.80;5.40;;;;;;;25.90;44.67;95570.59;6205481;28;109076;-60
2023/07/10 01:07:09;;;;;;;6.07;5.57;;;;;;;25.89;44.78;95563.66;6185517;28;109082;-60
2023/07/10 01:10:12;;;;;;;5.70;5.30;;;;;;;25.85;44.85;95560.78;6198453;28;109624;-60
2023/07/10 01:13:15;;;;;;;5.57;5.07;;;;;;;25.84;44.94;95569.16;6199948;28;109041;-60
2023/07/10 01:16:19;;;;;;;6.03;5.50;;;;;;;25.86;44.33;95564.25;6176480;28;109392;-62
2023/07/10 01:19:25;;;;;;;7.03;5.57;;;;;;;25.63;43.90;95569.03;6167305;28;109038;-62
2023/07/10 01:22:30;;;;;;;6.23;5.73;;;;;;;25.40;43.73;95563.03;6197625;28;109820;-65
2023/07/10 01:25:39;;;;;;;6.43;5.93;;;;;;;25.34;43.75;95558.88;6169345;28;109111;-63
2023/07/10 01:28:42;;;;;;;7.10;6.40;;;;;;;25.37;43.27;95552.91;6185693;28;109095;-62
2023/07/10 01:31:47;;;;;;;6.63;6.13;;;;;;;25.37;43.81;95567.13;6199893;28;109069;-63
2023/07/10 01:34:54;;;;;;;6.97;6.37;;;;;;;25.41;43.07;95579.91;6198964;28;112014;-61
2023/07/10 01:37:58;;;;;;;7.60;7.00;;;;;;;25.47;43.45;95571.38;6197157;28;111080;-63
2023/07/10 01:41:06;;;;;;;7.87;6.90;;;;;;;25.46;43.34;95571.69;6174795;28;108962;-63
2023/07/10 01:44:17;;;;;;;7.27;6.67;;;;;;;25.49;43.11;95561.13;6181772;28;110025;-63
2023/07/10 01:47:21;;;;;;;7.00;6.50;;;;;;;25.41;43.40;95567.28;6157832;28;109073;-62
2023/07/10 01:50:25;;;;;;;7.67;7.03;;;;;;;25.47;43.09;95560.66;6182059;28;109152;-62
2023/07/10 01:53:29;;;;;;;7.83;7.10;;;;;;;25.50;43.07;95560.03;6178539;28;109241;-62
2023/07/10 01:56:33;;;;;;;10.03;7.60;;;;;;;25.45;42.90;95562.06;6183568;28;110074;-63
2023/07/10 01:59:36;;;;;;;7.80;7.10;;;;;;;25.43;43.41;95556.25;6173887;28;109023;-62
2023/07/10 02:02:39;;;;;;;8.17;7.20;;;;;;;25.36;43.45;95557.47;6195033;28;110328;-63
2023/07/10 02:05:43;;;;;;;7.90;7.10;;;;;;;25.38;43.38;95565.25;6172264;28;110123;-63
2023/07/10 02:08:47;;;;;;;9.20;7.97;;;;;;;25.40;43.33;95568.38;6162073;28;110166;-61
2023/07/10 02:11:51;;;;;;;7.57;6.87;;;;;;;25.36;43.73;95578.13;6171485;28;110649;-62
2023/07/10 02:14:54;;;;;;;7.70;7.00;;;;;;;25.27;43.47;95574.63;6194337;28;109047;-63
2023/07/10 02:17:58;;;;;;;11.07;9.97;;;;;;;25.30;43.27;95574.00;6185011;28;109305;-63
2023/07/10 02:21:01;;;;;;;19.00;17.40;;;;;;;25.25;43.42;95582.19;6189714;28;109721;-61
2023/07/10 02:24:07;;;;;;;12.80;11.47;;;;;;;25.31;43.65;95580.94;6184010;28;110043;-63
2023/07/10 02:27:10;;;;;;;10.20;9.30;;;;;;;25.33;43.47;95578.72;6185143;28;109525;-60
2023/07/10 02:30:13;;;;;;;9.30;8.40;;;;;;;25.30;43.36;95579.38;6188653;28;109922;-61
2023/07/10 02:33:18;;;;;;;12.03;8.23;;;;;;;25.29;43.69;95583.16;6170529;28;110293;-59
2023/07/10 02:36:22;;;;;;;8.03;7.33;;;;;;;25.25;43.33;95588.34;6176501;28;109076;-59
2023/07/10 02:39:27;;;;;;;7.40;6.80;;;;;;;25.25;43.21;95583.00;6173703;28;109388;-59
2023/07/10 02:42:30;;;;;;;7.33;6.60;;;;;;;25.19;43.07;95594.16;6183436;28;110010;-60
2023/07/10 02:45:35;;;;;;;6.97;6.37;;;;;;;25.15;43.09;95593.19;6154415;28;109015;-59
2023/07/10 02:48:38;;;;;;;6.43;5.83;;;;;;;25.08;43.16;95593.66;6165697;28;108847;-61
2023/07/10 02:51:41;;;;;;;5.60;5.20;;;;;;;25.13;42.88;95600.75;6173343;28;109163;-59
2023/07/10 02:54:46;;;;;;;5.20;4.80;;;;;;;25.19;42.30;95602.97;6207352;28;110635;-61
2023/07/10 02:57:49;;;;;;;5.47;4.90;;;;;;;25.18;42.55;95595.25;6201678;28;110057;-60
2023/07/10 03:00:56;;;;;;;6.30;5.27;;;;;;;25.22;42.37;95593.53;6187744;28;110123;-60
2023/07/10 03:03:59;;;;;;;6.50;5.50;;;;;;;25.17;42.04;95596.34;6212606;28;109340;-60
2023/07/10 03:07:02;;;;;;;5.07;4.67;;;;;;;25.20;41.93;95599.19;6183120;28;109775;-60
2023/07/10 03:10:09;;;;;;;4.87;4.47;;;;;;;25.17;41.95;95597.13;6199286;28;109186;-67
2023/07/10 03:13:12;;;;;;;5.70;5.10;;;;;;;25.21;42.12;95598.13;6197803;28;109063;-65
2023/07/10 03:16:16;;;;;;;5.20;4.67;;;;;;;25.30;42.06;95608.84;6177990;28;109189;-65
2023/07/10 03:19:19;;;;;;;5.03;4.53;;;;;;;25.30;42.00;95609.63;6159603;28;109621;-65
2023/07/10 03:22:23;;;;;;;5.80;4.57;;;;;;;25.28;41.85;95611.81;6187542;28;109019;-65
2023/07/10 03:25:27;;;;;;;4.93;4.40;;;;;;;25.30;41.99;95614.19;6176735;28;109032;-65
2023/07/10 03:28:35;;;;;;;5.60;4.90;;;;;;;25.27;41.36;95604.09;6181081;28;110198;-65
2023/07/10 03:31:39;;;;;;;21.53;7.17;;;;;;;25.24;41.74;95618.13;6181130;28;109107;-66
2023/07/10 03:34:43;;;;;;;9.53;5.23;;;;;;;25.21;41.99;95616.06;6188316;28;108935;-65
2023/07/10 03:37:46;;;;;;;5.07;4.67;;;;;;;25.17;41.81;95618.56;6187888;28;109289;-70
2023/07/10 03:40:51;;;;;;;5.73;4.70;;;;;;;25.21;41.69;95618.75;6176765;28;109813;-70
2023/07/10 03:43:55;;;;;;;5.13;4.43;;;;;;;25.22;41.73;95625.69;6187962;28;109002;-79
2023/07/10 03:46:58;;;;;;;6.37;4.67;;;;;;;25.21;41.75;95622.22;6187780;28;109248;-69
2023/07/10 03:50:01;;;;;;;6.30;4.40;;;;;;;25.31;43.12;95623.81;6171019;28;109000;-69
2023/07/10 03:53:04;;;;;;;5.57;5.00;;;;;;;25.28;41.75;95627.13;6151839;28;109155;-69
2023/07/10 03:56:09;;;;;;;6.17;5.50;;;;;;;25.23;43.33;95629.94;6190531;28;109074;-71
2023/07/10 03:59:12;;;;;;;9.17;5.47;;;;;;;25.27;42.91;95638.94;6177665;28;109508;-69
2023/07/10 04:02:15;;;;;;;5.97;4.77;;;;;;;25.31;42.68;95631.84;6195183;28;109036;-71
2023/07/10 04:05:18;;;;;;;7.40;5.50;;;;;;;25.36;42.51;95637.06;6177844;28;109084;-70
2023/07/10 04:08:22;;;;;;;5.80;5.30;;;;;;;25.42;41.90;95643.88;6176898;28;109078;-70
2023/07/10 04:11:27;;;;;;;5.40;4.90;;;;;;;25.34;42.05;95642.72;6195270;28;109269;-69
2023/07/10 04:14:30;;;;;;;5.10;4.70;;;;;;;25.34;41.90;95641.94;6188304;28;109382;-67
2023/07/10 04:17:34;;;;;;;5.37;4.87;;;;;;;25.40;42.75;95643.41;6178519;28;109300;-71
2023/07/10 04:20:38;;;;;;;11.30;5.30;;;;;;;25.47;42.39;95643.72;6178862;28;109128;-70
2023/07/10 04:23:41;;;;;;;4.83;4.43;;;;;;;25.50;42.00;95643.09;6179412;28;110295;-70
2023/07/10 04:26:46;;;;;;;5.77;5.17;;;;;;;25.56;41.86;95646.44;6178097;28;109051;-70
2023/07/10 04:29:49;;;;;;;6.17;5.57;;;;;;;25.53;41.85;95644.34;6171656;28;109538;-70
2023/07/10 04:32:52;;;;;;;7.93;4.90;;;;;;;25.54;42.05;95645.94;6185762;28;109012;-69
2023/07/10 04:35:57;;;;;;;6.80;4.73;;;;;;;25.54;41.99;95644.06;6185977;28;109354;-70
2023/07/10 04:39:00;;;;;;;5.87;5.37;;;;;;;25.43;41.82;95645.47;6176766;28;109330;-69
2023/07/10 04:42:05;;;;;;;7.13;5.47;;;;;;;25.31;41.98;95642.56;6186590;28;109922;-69
2023/07/10 04:45:09;;;;;;;5.77;5.27;;;;;;;25.26;41.86;95642.72;6186619;28;109397;-69
2023/07/10 04:48:12;;;;;;;6.00;5.47;;;;;;;25.26;42.08;95645.38;6181453;28;109314;-64
2023/07/10 04:51:17;;;;;;;6.83;5.37;;;;;;;25.17;42.23;95636.53;6180469;28;109539;-64
2023/07/10 04:54:20;;;;;;;6.03;5.50;;;;;;;25.18;41.95;95643.47;6186097;28;109180;-64
2023/07/10 04:57:24;;;;;;;6.50;6.00;;;;;;;25.17;42.39;95639.22;6185433;28;109838;-64
2023/07/10 05:00:27;;;;;;;6.07;5.47;;;;;;;25.17;42.19;95644.56;6183442;28;109193;-65
2023/07/10 05:03:31;;;;;;;6.17;5.20;;;;;;;25.16;42.27;95649.13;6210254;28;109047;-64
2023/07/10 05:06:34;;;;;;;5.60;5.10;;;;;;;25.17;42.46;95644.56;6211089;28;108730;-64
2023/07/10 05:09:37;;;;;;;5.73;5.27;;;;;;;25.14;42.53;95634.47;6210856;28;109251;-64
2023/07/10 05:12:41;;;;;;;7.33;5.37;;;;;;;25.10;42.78;95634.31;6200665;28;110964;-64
2023/07/10 05:15:45;;;;;;;5.80;5.30;;;;;;;25.11;42.82;95635.09;6210630;28;109062;-64
2023/07/10 05:18:48;;;;;;;6.10;5.60;;;;;;;25.12;42.68;95639.34;6210803;28;109215;-64
2023/07/10 05:21:52;;;;;;;5.63;5.10;;;;;;;25.13;42.80;95632.91;6210491;28;109084;-64
2023/07/10 05:24:55;;;;;;;6.00;5.03;;;;;;;25.17;43.12;95633.84;6199882;28;109072;-65
2023/07/10 05:28:01;;;;;;;7.20;5.80;;;;;;;25.16;43.14;95641.09;6209589;28;109078;-65
2023/07/10 05:31:06;;;;;;;6.30;5.77;;;;;;;25.20;43.53;95643.94;6198224;28;109256;-65
2023/07/10 05:34:09;;;;;;;8.43;6.10;;;;;;;25.20;43.54;95639.38;6175694;28;109045;-65
2023/07/10 05:37:13;;;;;;;7.47;5.60;;;;;;;25.23;43.27;95646.03;6184916;28;110263;-65
2023/07/10 05:40:16;;;;;;;6.80;6.20;;;;;;;25.23;43.22;95637.97;6185684;28;109062;-65
2023/07/10 05:43:21;;;;;;;8.53;7.23;;;;;;;25.28;43.53;95643.97;6185358;28;109489;-64
2023/07/10 05:46:24;;;;;;;9.00;8.10;;;;;;;25.33;43.70;95643.03;6175747;28;109077;-64
2023/07/10 05:49:27;;;;;;;12.53;8.70;;;;;;;25.46;43.36;95642.16;6185590;28;108963;-64
2023/07/10 05:52:30;;;;;;;9.37;8.03;;;;;;;25.57;43.38;95643.44;6185310;28;109263;-63
2023/07/10 05:55:33;;;;;;;7.30;6.60;;;;;;;25.64;42.89;95638.41;6185526;28;109302;-62
2023/07/10 05:58:39;;;;;;;7.40;6.40;;;;;;;25.71;43.06;95642.50;6176343;28;109205;-68
2023/07/10 06:01:43;;;;;;;7.17;6.50;;;;;;;25.79;42.93;95644.41;6204244;28;109380;-68
2023/07/10 06:04:46;;;;;;;7.40;6.70;;;;;;;25.87;42.93;95646.28;6211024;28;109071;-69
2023/07/10 06:07:49;;;;;;;8.97;6.80;;;;;;;25.91;42.64;95640.00;6206964;28;109443;-69
2023/07/10 06:10:53;;;;;;;7.70;7.00;;;;;;;26.02;42.47;95642.38;6207225;28;109055;-67
2023/07/10 06:13:57;;;;;;;7.60;6.83;;;;;;;26.06;42.89;95644.13;6211402;28;109376;-68
2023/07/10 06:17:01;;;;;;;9.80;6.67;;;;;;;26.14;43.23;95648.69;6215410;28;109037;-69
2023/07/10 06:20:06;;;;;;;7.63;6.70;;;;;;;26.20;43.06;95638.56;6205838;28;109017;-69
2023/07/10 06:23:09;;;;;;;8.13;7.20;;;;;;;26.26;42.93;95643.47;6215252;28;109066;-70
2023/07/10 06:26:12;;;;;;;7.50;6.37;;;;;;;26.34;43.26;95643.78;6214845;28;109021;-69
2023/07/10 06:29:17;;;;;;;7.23;6.53;;;;;;;26.38;43.34;95634.78;6214332;28;109069;-76
2023/07/10 06:32:21;;;;;;;8.23;6.20;;;;;;;26.43;42.62;95647.25;6182828;28;109418;-70
2023/07/10 06:35:24;;;;;;;8.77;6.10;;;;;;;26.43;42.65;95639.19;6192169;28;108590;-69
2023/07/10 06:38:28;;;;;;;12.70;6.57;;;;;;;26.18;42.41;95648.84;6191016;28;108999;-69
2023/07/10 06:41:31;;;;;;;8.50;6.47;;;;;;;26.13;43.41;95649.78;6191650;28;108787;-70
2023/07/10 06:44:35;;;;;;;7.93;7.07;;;;;;;26.12;44.21;95642.84;6181929;28;108970;-71
2023/07/10 06:47:40;;;;;;;7.03;5.90;;;;;;;26.16;43.39;95638.44;6190733;28;109382;-67
2023/07/10 06:50:47;;;;;;;12.27;6.20;;;;;;;26.13;42.85;95649.78;6191026;28;108613;-71
2023/07/10 06:53:50;;;;;;;6.77;5.97;;;;;;;26.12;43.46;95645.53;6180283;28;109073;-69
2023/07/10 06:56:53;;;;;;;8.80;6.40;;;;;;;26.08;43.34;95647.28;6189749;28;108972;-70
2023/07/10 06:59:58;;;;;;;8.30;6.30;;;;;;;26.25;42.89;95635.75;6192724;28;110308;-70
2023/07/10 07:03:01;;;;;;;7.93;6.20;;;;;;;26.32;42.86;95635.25;6214877;28;109071;-70
2023/07/10 07:06:06;;;;;;;6.10;5.60;;;;;;;26.38;42.49;95636.66;6205491;28;109178;-69
2023/07/10 07:09:10;;;;;;;6.97;6.27;;;;;;;26.49;42.98;95632.53;6215862;28;109507;-69
2023/07/10 07:12:13;;;;;;;6.73;6.10;;;;;;;26.59;42.99;95629.53;6215617;28;109220;-69
2023/07/10 07:15:19;;;;;;;8.30;6.37;;;;;;;26.64;42.83;95632.06;6215227;28;109078;-69
2023/07/10 07:18:23;;;;;;;7.23;6.53;;;;;;;26.67;42.77;95636.78;6205754;28;109240;-69
2023/07/10 07:21:30;;;;;;;6.80;6.10;;;;;;;26.71;42.48;95628.88;6215277;28;109564;-70
2023/07/10 07:24:34;;;;;;;8.23;6.20;;;;;;;26.69;42.27;95623.81;6215727;28;109021;-70
2023/07/10 07:27:37;;;;;;;6.70;6.03;;;;;;;26.74;42.69;95625.56;6210297;28;109100;-70
2023/07/10 07:30:47;;;;;;;6.73;6.13;;;;;;;26.76;42.15;95626.03;6202143;28;109000;-70
2023/07/10 07:33:54;;;;;;;6.17;5.57;;;;;;;26.79;43.70;95618.09;6189796;28;109870;-69
2023/07/10 07:36:57;;;;;;;6.10;5.50;;;;;;;26.83;42.97;95619.03;6190092;28;109272;-69
2023/07/10 07:40:02;;;;;;;8.30;6.30;;;;;;;26.87;42.51;95625.31;6179832;28;109198;-69
2023/07/10 07:43:05;;;;;;;6.37;5.77;;;;;;;26.87;43.13;95613.81;6188920;28;109548;-68
2023/07/10 07:46:09;;;;;;;7.70;7.00;;;;;;;26.63;42.37;95619.75;6188505;28;108982;-69
2023/07/10 07:49:12;;;;;;;7.33;6.60;;;;;;;26.75;42.97;95614.50;6189789;28;110015;-69
2023/07/10 07:52:15;;;;;;;7.20;6.50;;;;;;;26.80;42.61;95606.25;6179162;28;109235;-70
2023/07/10 07:55:19;;;;;;;6.33;5.73;;;;;;;26.87;42.05;95611.13;6189203;28;109244;-70
2023/07/10 07:58:22;;;;;;;7.10;6.50;;;;;;;26.94;41.55;95607.94;6189473;28;109605;-69
2023/07/10 08:01:27;;;;;;;6.67;6.10;;;;;;;26.73;42.15;95608.66;6198152;28;109187;-70
2023/07/10 08:04:30;;;;;;;7.33;6.70;;;;;;;26.77;41.95;95603.44;6208733;28;109062;-71
2023/07/10 08:07:50;;;;;;;6.87;6.17;;;;;;;26.76;41.55;95597.28;6210957;28;108710;-70
2023/07/10 08:10:54;;;;;;;6.87;6.27;;;;;;;26.85;41.62;95599.91;6213673;28;109148;-70
2023/07/10 08:13:57;;;;;;;6.90;6.30;;;;;;;26.56;41.50;95600.63;6203918;28;109167;-70
2023/07/10 08:17:02;;;;;;;6.90;6.40;;;;;;;26.81;41.21;95596.28;6213674;28;109050;-61
2023/07/10 08:20:07;;;;;;;7.03;6.43;;;;;;;26.93;40.93;95598.31;6211746;28;109278;-62
2023/07/10 08:23:11;;;;;;;6.47;5.83;;;;;;;26.75;41.33;95590.34;6212154;28;110051;-63
2023/07/10 08:26:15;;;;;;;6.53;5.93;;;;;;;26.89;41.18;95592.00;6201271;28;109045;-62
2023/07/10 08:29:28;;;;;;;11.90;11.00;;;;;;;26.93;41.13;95588.34;6211533;28;108964;-62
2023/07/10 08:32:33;;;;;;;8.60;7.93;;;;;;;27.02;41.30;95585.59;6187621;28;109037;-62
2023/07/10 08:35:36;;;;;;;11.80;11.00;;;;;;;26.98;41.60;95590.06;6182262;28;109368;-63
2023/07/10 08:38:39;;;;;;;11.40;8.80;;;;;;;27.04;41.13;95591.44;6181001;28;109293;-61
2023/07/10 08:41:43;;;;;;;10.47;9.60;;;;;;;27.10;41.20;95584.78;6186632;28;109041;-60
2023/07/10 08:44:49;;;;;;;9.50;8.70;;;;;;;27.11;40.97;95591.75;6186639;28;109073;-62
2023/07/10 08:48:02;;;;;;;10.13;9.27;;;;;;;26.95;41.60;95588.03;6176439;28;109068;-60
2023/07/10 08:51:26;;;;;;;8.20;7.50;;;;;;;27.07;41.76;95586.22;6186713;28;110280;-60
2023/07/10 08:54:30;;;;;;;8.40;7.70;;;;;;;27.07;41.88;95582.75;6186997;28;110019;-60
2023/07/10 08:57:36;;;;;;;8.50;7.80;;;;;;;26.99;41.26;95586.25;6186538;28;109951;-59
2023/07/10 09:00:43;;;;;;;7.90;7.30;;;;;;;27.03;41.54;95587.19;6183687;28;108795;-62
2023/07/10 09:03:51;;;;;;;7.73;7.03;;;;;;;27.03;41.08;95587.19;6209265;28;109177;-60
2023/07/10 09:06:59;;;;;;;7.33;6.77;;;;;;;27.04;41.48;95578.00;6210849;28;109088;-59
2023/07/10 09:10:05;;;;;;;7.73;7.00;;;;;;;27.02;40.65;95580.22;6202953;28;109100;-61
2023/07/10 09:13:14;;;;;;;6.47;5.97;;;;;;;27.04;40.80;95575.31;6210458;28;109069;-60
2023/07/10 09:16:19;;;;;;;6.80;6.30;;;;;;;27.05;40.62;95566.97;6210575;28;109488;-60
2023/07/10 09:19:25;;;;;;;6.33;5.83;;;;;;;26.90;40.26;95566.72;6210904;28;110048;-59
2023/07/10 09:22:28;;;;;;;6.57;6.07;;;;;;;26.83;40.55;95567.22;6200741;28;112251;-59
2023/07/10 09:25:37;;;;;;;6.37;5.87;;;;;;;26.84;40.57;95566.91;6210500;28;109370;-60
2023/07/10 09:28:45;;;;;;;6.83;6.30;;;;;;;26.79;40.79;95559.03;6200260;28;108774;-59
2023/07/10 09:31:54;;;;;;;6.40;6.00;;;;;;;26.66;40.77;95568.09;6185322;28;109113;-59
2023/07/10 09:35:00;;;;;;;6.60;6.10;;;;;;;26.69;40.22;95564.75;6173574;28;109069;-60
2023/07/10 09:38:03;;;;;;;5.80;5.40;;;;;;;26.77;39.92;95566.63;6185259;28;109120;-60
2023/07/10 09:41:12;;;;;;;6.30;5.80;;;;;;;26.78;40.20;95564.72;6185396;28;109097;-60
2023/07/10 09:44:18;;;;;;;6.23;5.83;;;;;;;26.78;40.26;95546.72;6176912;28;110002;-60
2023/07/10 09:47:22;;;;;;;6.70;6.00;;;;;;;26.60;40.44;95566.66;6185135;28;109398;-60
2023/07/10 09:50:28;;;;;;;6.20;5.70;;;;;;;26.63;40.10;95560.69;6185180;28;108886;-59
2023/07/10 09:53:33;;;;;;;5.67;5.27;;;;;;;26.59;40.29;95559.72;6185263;28;109065;-60
2023/07/10 09:56:39;;;;;;;5.93;5.43;;;;;;;26.57;40.24;95551.22;6175659;28;109466;-61
2023/07/10 09:59:48;;;;;;;5.70;5.30;;;;;;;26.69;39.28;95548.63;6185827;28;110420;-60
2023/07/10 10:02:56;;;;;;;6.13;5.53;;;;;;;26.64;39.55;95542.66;6160202;28;109103;-60
2023/07/10 10:06:03;;;;;;;6.40;5.90;;;;;;;26.60;39.36;95539.81;6160061;28;110047;-60
2023/07/10 10:09:16;;;;;;;5.67;5.17;;;;;;;26.61;39.68;95529.88;6152244;28;110049;-61
2023/07/10 10:12:24;;;;;;;5.30;5.00;;;;;;;26.58;39.59;95534.00;6160614;28;108652;-61
2023/07/10 10:15:37;;;;;;;5.90;5.40;;;;;;;26.43;40.42;95521.88;6160918;28;110038;-60
2023/07/10 10:18:45;;;;;;;5.33;4.93;;;;;;;26.37;39.74;95528.53;6149725;28;109058;-62
2023/07/10 10:21:49;;;;;;;4.97;4.40;;;;;;;26.43;39.30;95524.56;6160431;28;110502;-60
2023/07/10 10:24:52;;;;;;;5.10;4.70;;;;;;;26.59;39.12;95511.41;6159979;28;109053;-60
2023/07/10 10:28:02;;;;;;;5.40;5.00;;;;;;;26.66;38.60;95522.44;6160605;28;109360;-59
2023/07/10 10:31:09;;;;;;;6.23;5.27;;;;;;;26.71;39.45;95508.81;6170504;28;109073;-61
2023/07/10 10:34:25;;;;;;;5.37;4.97;;;;;;;26.60;38.89;95509.50;6209185;28;109070;-61
2023/07/10 10:37:43;;;;;;;5.30;4.90;;;;;;;26.43;39.10;95507.69;6208400;28;109066;-67
2023/07/10 10:40:54;;;;;;;6.07;5.50;;;;;;;26.42;39.52;95501.53;6203846;28;110100;-66
2023/07/10 10:44:06;;;;;;;5.27;4.90;;;;;;;26.42;38.99;95511.47;6206889;28;109362;-65
2023/07/10 10:47:31;;;;;;;5.60;5.10;;;;;;;26.56;38.09;95507.47;6209322;28;109338;-66
2023/07/10 10:50:52;;;;;;;5.80;5.40;;;;;;;26.46;38.35;95513.19;6209309;28;109210;-67
2023/07/10 10:54:09;;;;;;;5.63;5.13;;;;;;;26.55;38.25;95497.84;6198764;28;109178;-65
2023/07/10 10:57:43;;;;;;;6.73;5.20;;;;;;;26.70;38.23;95501.09;6209165;28;109947;-68
2023/07/10 11:01:02;;;;;;;5.47;5.07;;;;;;;26.71;38.29;95492.72;6211352;28;109204;-67
2023/07/10 11:04:19;;;;;;;5.97;5.57;;;;;;;26.70;38.73;95491.13;6201862;28;109130;-65
2023/07/10 11:07:25;;;;;;;5.83;5.23;;;;;;;26.71;38.64;95490.03;6213381;28;109246;-64
2023/07/10 11:10:33;;;;;;;5.73;5.33;;;;;;;26.71;38.49;95487.34;6212131;28;109422;-66
2023/07/10 11:13:39;;;;;;;5.27;4.87;;;;;;;26.69;39.08;95484.19;6213327;28;109394;-66
2023/07/10 11:16:43;;;;;;;5.93;5.43;;;;;;;26.67;38.90;95486.41;6202524;28;109084;-65
2023/07/10 11:19:48;;;;;;;5.33;4.83;;;;;;;26.55;37.83;95481.75;6212892;28;109051;-66
2023/07/10 11:22:53;;;;;;;4.83;4.43;;;;;;;26.45;36.53;95478.63;6214299;28;108974;-69
2023/07/10 11:26:03;;;;;;;5.10;4.60;;;;;;;26.55;37.17;95476.38;6212034;28;110366;-67
2023/07/10 11:29:20;;;;;;;4.93;4.53;;;;;;;26.62;37.23;95473.16;6209975;28;109443;-69
2023/07/10 11:32:26;;;;;;;5.47;5.00;;;;;;;26.67;37.16;95470.31;6193830;28;109444;-69
2023/07/10 11:35:30;;;;;;;5.33;4.93;;;;;;;26.70;37.28;95479.63;6187826;28;109226;-69
2023/07/10 11:38:35;;;;;;;5.10;4.57;;;;;;;26.72;37.60;95464.78;6178389;28;111270;-73
2023/07/10 11:42:07;;;;;;;4.90;4.50;;;;;;;26.72;37.36;95470.16;6187137;28;109051;-71
2023/07/10 11:45:14;;;;;;;4.87;4.47;;;;;;;26.71;37.61;95465.84;6187609;28;109060;-68
2023/07/10 11:48:38;;;;;;;5.70;5.23;;;;;;;26.70;37.68;95464.28;6187771;28;109147;-61
2023/07/10 11:51:42;;;;;;;5.90;4.73;;;;;;;26.72;37.82;95462.09;6181624;28;109043;-63
2023/07/10 11:55:02;;;;;;;5.53;5.00;;;;;;;26.73;37.84;95462.88;6187688;28;109263;-61
2023/07/10 11:58:24;;;;;;;4.70;4.33;;;;;;;26.67;37.66;95454.19;6187508;28;109319;-61
2023/07/10 12:01:27;;;;;;;5.07;4.67;;;;;;;26.68;38.13;95455.78;6177062;28;109978;-62
2023/07/10 12:04:31;;;;;;;5.13;4.47;;;;;;;26.67;38.48;95453.41;6186983;28;109076;-61
2023/07/10 12:07:34;;;;;;;5.33;4.60;;;;;;;26.67;38.05;95451.53;6187719;28;109461;-62
2023/07/10 12:10:40;;;;;;;5.00;4.63;;;;;;;26.67;38.70;95448.84;6187346;28;112429;-60
2023/07/10 12:13:44;;;;;;;5.00;4.60;;;;;;;26.68;39.01;95447.72;6174401;28;109523;-61
2023/07/10 12:16:52;;;;;;;5.33;4.93;;;;;;;26.66;38.68;95444.56;6187157;28;109135;-60
2023/07/10 12:20:22;;;;;;;4.50;4.20;;;;;;;26.67;38.34;95438.09;6186996;28;110883;-61
2023/07/10 12:23:25;;;;;;;4.93;4.57;;;;;;;26.67;39.08;95432.72;6179068;28;109012;-64
2023/07/10 12:26:29;;;;;;;5.17;4.80;;;;;;;26.66;38.94;95433.84;6184644;28;109580;-61
2023/07/10 12:29:38;;;;;;;4.80;4.40;;;;;;;26.65;38.96;95440.31;6187533;28;111913;-61
2023/07/10 12:32:41;;;;;;;8.73;4.83;;;;;;;26.65;39.16;95437.63;6209260;28;108800;-61
2023/07/10 12:35:45;;;;;;;4.67;4.23;;;;;;;26.65;39.61;95431.47;6200105;28;109158;-61
2023/07/10 12:38:49;;;;;;;5.40;5.00;;;;;;;26.67;39.32;95432.72;6211122;28;109351;-61
2023/07/10 12:41:54;;;;;;;5.23;4.73;;;;;;;26.63;39.69;95421.06;6211140;28;109026;-61
2023/07/10 12:44:59;;;;;;;5.50;5.10;;;;;;;26.65;39.10;95420.75;6210371;28;109580;-60
2023/07/10 12:48:10;;;;;;;5.00;4.60;;;;;;;26.65;39.38;95424.22;6199921;28;109214;-61
2023/07/10 12:51:22;;;;;;;5.20;4.80;;;;;;;26.66;39.21;95422.31;6211132;28;109282;-62
2023/07/10 12:54:29;;;;;;;5.27;4.77;;;;;;;26.66;39.04;95425.00;6211138;28;109093;-62
2023/07/10 12:57:35;;;;;;;5.37;4.93;;;;;;;26.63;39.52;95436.38;6202634;28;109316;-62
2023/07/10 13:00:47;;;;;;;4.90;4.60;;;;;;;26.64;39.59;95427.22;6204604;28;109031;-71
2023/07/10 13:04:09;;;;;;;5.10;4.70;;;;;;;26.65;39.69;95428.78;6185824;28;109103;-72
2023/07/10 13:07:16;;;;;;;5.30;4.90;;;;;;;26.64;39.17;95428.00;6186814;28;109526;-73
2023/07/10 13:10:42;;;;;;;4.80;4.50;;;;;;;26.64;39.38;95427.22;6176656;28;109585;-72
2023/07/10 13:13:46;;;;;;;5.47;5.07;;;;;;;26.64;39.21;95433.38;6186564;28;110118;-72
2023/07/10 13:16:51;;;;;;;4.67;4.37;;;;;;;26.65;39.59;95418.84;6185523;28;109130;-72
2023/07/10 13:19:56;;;;;;;5.00;4.70;;;;;;;26.66;39.05;95414.25;6180950;28;109060;-71
2023/07/10 13:23:10;;;;;;;5.70;4.50;;;;;;;26.65;39.52;95418.84;6181569;28;111656;-73
2023/07/10 13:26:18;;;;;;;5.33;4.93;;;;;;;26.64;39.79;95422.63;6185848;28;109130;-72
2023/07/10 13:29:21;;;;;;;5.30;4.80;;;;;;;26.64;39.46;95419.97;6186148;28;110340;-72
2023/07/10 13:32:26;;;;;;;4.97;4.67;;;;;;;26.64;39.42;95419.16;6182930;28;108838;-72
2023/07/10 13:35:29;;;;;;;4.87;4.57;;;;;;;26.62;39.87;95424.84;6210071;28;109059;-71
2023/07/10 13:38:32;;;;;;;4.93;4.43;;;;;;;26.62;39.76;95424.06;6210381;28;108991;-72
2023/07/10 13:41:36;;;;;;;4.70;4.40;;;;;;;26.63;39.86;95420.25;6210534;28;110040;-71
2023/07/10 13:44:39;;;;;;;4.93;4.57;;;;;;;26.61;39.27;95415.22;6198798;28;109054;-71
2023/07/10 13:47:43;;;;;;;5.33;5.00;;;;;;;26.63;39.40;95425.63;6209258;28;109086;-71
2023/07/10 13:50:48;;;;;;;4.57;4.27;;;;;;;26.63;39.89;95429.13;6210046;28;109069;-72
2023/07/10 13:53:52;;;;;;;4.60;4.30;;;;;;;26.63;39.45;95429.13;6205555;28;109176;-70
2023/07/10 13:56:58;;;;;;;5.20;4.80;;;;;;;26.63;39.85;95418.38;6204585;28;110247;-72
2023/07/10 14:00:02;;;;;;;4.87;4.57;;;;;;;26.62;39.84;95427.53;6210106;28;109365;-73
2023/07/10 14:03:10;;;;;;;5.00;4.57;;;;;;;26.65;39.62;95418.84;6185032;28;109691;-73
2023/07/10 14:06:30;;;;;;;5.30;4.90;;;;;;;26.62;39.52;95424.06;6174724;28;110761;-72
2023/07/10 14:09:33;;;;;;;5.40;5.00;;;;;;;26.64;40.15;95419.16;6185625;28;109328;-72
2023/07/10 14:12:36;;;;;;;5.00;4.60;;;;;;;26.64;39.87;95408.44;6185172;28;109041;-72
2023/07/10 14:15:41;;;;;;;4.70;4.40;;;;;;;26.63;39.71;95413.00;6185140;28;109075;-73
2023/07/10 14:18:46;;;;;;;4.67;4.30;;;;;;;26.64;39.49;95419.97;6173465;28;108993;-72
2023/07/10 14:21:49;;;;;;;5.20;4.80;;;;;;;26.65;39.84;95416.16;6185498;28;109576;-72
2023/07/10 14:24:52;;;;;;;5.00;4.60;;;;;;;26.64;39.75;95414.59;6185275;28;109378;-73